sensor_id;sensor_type;location;lat;lon;timestamp;pressure;altitude;pressure_sealevel;temperature
69785;BMP280;14177;51.520;6.764;2023-07-22T00:00:58;101128.47;;;15.42
69785;BMP280;14177;51.520;6.764;2023-07-22T00:03:24;101125.75;;;15.44
69785;BMP280;14177;51.520;6.764;2023-07-22T00:06:09;101131.72;;;15.47
69785;BMP280;14177;51.520;6.764;2023-07-22T00:08:37;101131.63;;;15.49
69785;BMP280;14177;51.520;6.764;2023-07-22T00:11:06;101130.72;;;15.50
69785;BMP280;14177;51.520;6.764;2023-07-22T00:13:34;101123.72;;;15.50
69785;BMP280;14177;51.520;6.764;2023-07-22T00:16:01;101122.88;;;15.50
69785;BMP280;14177;51.520;6.764;2023-07-22T00:18:31;101120.34;;;15.48
69785;BMP280;14177;51.520;6.764;2023-07-22T00:20:59;101126.50;;;15.47
69785;BMP280;14177;51.520;6.764;2023-07-22T00:23:26;101118.63;;;15.47
69785;BMP280;14177;51.520;6.764;2023-07-22T00:25:53;101117.78;;;15.47
69785;BMP280;14177;51.520;6.764;2023-07-22T00:28:20;101114.38;;;15.45
69785;BMP280;14177;51.520;6.764;2023-07-22T00:30:47;101116.06;;;15.46
69785;BMP280;14177;51.520;6.764;2023-07-22T00:33:16;101107.38;;;15.45
69785;BMP280;14177;51.520;6.764;2023-07-22T00:35:48;101112.53;;;15.47
69785;BMP280;14177;51.520;6.764;2023-07-22T00:38:17;101115.94;;;15.49
69785;BMP280;14177;51.520;6.764;2023-07-22T00:40:45;101105.41;;;15.50
69785;BMP280;14177;51.520;6.764;2023-07-22T00:43:12;101116.72;;;15.51
69785;BMP280;14177;51.520;6.764;2023-07-22T00:45:39;101113.19;;;15.52
69785;BMP280;14177;51.520;6.764;2023-07-22T00:48:07;101102.69;;;15.52
69785;BMP280;14177;51.520;6.764;2023-07-22T00:50:36;101103.56;;;15.52
69785;BMP280;14177;51.520;6.764;2023-07-22T00:53:03;101108.84;;;15.51
69785;BMP280;14177;51.520;6.764;2023-07-22T00:55:33;101106.25;;;15.51
69785;BMP280;14177;51.520;6.764;2023-07-22T00:58:02;101103.63;;;15.51
69785;BMP280;14177;51.520;6.764;2023-07-22T01:00:29;101095.84;;;15.49
69785;BMP280;14177;51.520;6.764;2023-07-22T01:02:56;101093.28;;;15.48
69785;BMP280;14177;51.520;6.764;2023-07-22T01:05:25;101095.13;;;15.46
69785;BMP280;14177;51.520;6.764;2023-07-22T01:07:52;101093.22;;;15.49
69785;BMP280;14177;51.520;6.764;2023-07-22T01:10:21;101094.06;;;15.50
69785;BMP280;14177;51.520;6.764;2023-07-22T01:12:48;101090.41;;;15.54
69785;BMP280;14177;51.520;6.764;2023-07-22T01:15:15;101091.03;;;15.59
69785;BMP280;14177;51.520;6.764;2023-07-22T01:17:43;101084.88;;;15.60
69785;BMP280;14177;51.520;6.764;2023-07-22T01:20:12;101088.13;;;15.65
69785;BMP280;14177;51.520;6.764;2023-07-22T01:25:10;101091.38;;;15.70
69785;BMP280;14177;51.520;6.764;2023-07-22T01:27:38;101083.44;;;15.71
69785;BMP280;14177;51.520;6.764;2023-07-22T01:30:05;101087.69;;;15.74
69785;BMP280;14177;51.520;6.764;2023-07-22T01:32:36;101085.09;;;15.74
69785;BMP280;14177;51.520;6.764;2023-07-22T01:35:04;101085.88;;;15.76
69785;BMP280;14177;51.520;6.764;2023-07-22T01:37:31;101081.47;;;15.76
69785;BMP280;14177;51.520;6.764;2023-07-22T01:39:58;101084.84;;;15.78
69785;BMP280;14177;51.520;6.764;2023-07-22T01:42:25;101083.88;;;15.81
69785;BMP280;14177;51.520;6.764;2023-07-22T01:44:53;101085.56;;;15.82
69785;BMP280;14177;51.520;6.764;2023-07-22T01:47:20;101084.72;;;15.81
69785;BMP280;14177;51.520;6.764;2023-07-22T01:49:47;101083.88;;;15.81
69785;BMP280;14177;51.520;6.764;2023-07-22T01:52:14;101081.25;;;15.81
69785;BMP280;14177;51.520;6.764;2023-07-22T01:54:41;101075.09;;;15.82
69785;BMP280;14177;51.520;6.764;2023-07-22T01:57:07;101082.97;;;15.82
69785;BMP280;14177;51.520;6.764;2023-07-22T01:59:34;101082.88;;;15.83
69785;BMP280;14177;51.520;6.764;2023-07-22T02:02:01;101082.88;;;15.83
69785;BMP280;14177;51.520;6.764;2023-07-22T02:04:28;101082.88;;;15.83
69785;BMP280;14177;51.520;6.764;2023-07-22T02:06:55;101077.47;;;15.86
69785;BMP280;14177;51.520;6.764;2023-07-22T02:09:22;101082.72;;;15.86
69785;BMP280;14177;51.520;6.764;2023-07-22T02:11:49;101081.88;;;15.85
69785;BMP280;14177;51.520;6.764;2023-07-22T02:14:16;101080.97;;;15.86
69785;BMP280;14177;51.520;6.764;2023-07-22T02:16:43;101076.50;;;15.88
69785;BMP280;14177;51.520;6.764;2023-07-22T02:19:10;101082.53;;;15.90
69785;BMP280;14177;51.520;6.764;2023-07-22T02:21:41;101072.88;;;15.91
69785;BMP280;14177;51.520;6.764;2023-07-22T02:24:09;101079.91;;;15.90
69785;BMP280;14177;51.520;6.764;2023-07-22T02:26:36;101072.97;;;15.89
69785;BMP280;14177;51.520;6.764;2023-07-22T02:29:03;101078.19;;;15.89
69785;BMP280;14177;51.520;6.764;2023-07-22T02:31:30;101067.78;;;15.88
69785;BMP280;14177;51.520;6.764;2023-07-22T02:33:57;101073.88;;;15.88
69785;BMP280;14177;51.520;6.764;2023-07-22T02:36:24;101063.41;;;15.88
69785;BMP280;14177;51.520;6.764;2023-07-22T02:38:52;101073.88;;;15.88
69785;BMP280;14177;51.520;6.764;2023-07-22T02:41:19;101077.34;;;15.89
69785;BMP280;14177;51.520;6.764;2023-07-22T02:43:48;101078.19;;;15.89
69785;BMP280;14177;51.520;6.764;2023-07-22T02:46:15;101078.97;;;15.91
69785;BMP280;14177;51.520;6.764;2023-07-22T02:48:42;101083.16;;;15.95
69785;BMP280;14177;51.520;6.764;2023-07-22T02:51:10;101082.22;;;15.96
69785;BMP280;14177;51.520;6.764;2023-07-22T02:53:40;101083.06;;;15.97
69785;BMP280;14177;51.520;6.764;2023-07-22T02:56:08;101079.59;;;15.96
69785;BMP280;14177;51.520;6.764;2023-07-22T02:58:35;101082.13;;;15.98
69785;BMP280;14177;51.520;6.764;2023-07-22T03:01:05;101089.16;;;15.97
69785;BMP280;14177;51.520;6.764;2023-07-22T03:03:36;101089.06;;;15.99
69785;BMP280;14177;51.520;6.764;2023-07-22T03:06:03;101080.28;;;16.00
69785;BMP280;14177;51.520;6.764;2023-07-22T03:08:31;101087.31;;;15.99
69785;BMP280;14177;51.520;6.764;2023-07-22T03:10:58;101097.94;;;15.96
69785;BMP280;14177;51.520;6.764;2023-07-22T03:13:25;101098.09;;;15.93
69785;BMP280;14177;51.520;6.764;2023-07-22T03:15:57;101090.38;;;15.90
69785;BMP280;14177;51.520;6.764;2023-07-22T03:18:24;101094.91;;;15.87
69785;BMP280;14177;51.520;6.764;2023-07-22T03:20:51;101095.91;;;15.84
69785;BMP280;14177;51.520;6.764;2023-07-22T03:23:19;101089.88;;;15.82
69785;BMP280;14177;51.520;6.764;2023-07-22T03:25:47;101092.50;;;15.82
69785;BMP280;14177;51.520;6.764;2023-07-22T03:28:14;101085.63;;;15.80
69785;BMP280;14177;51.520;6.764;2023-07-22T03:30:41;101094.34;;;15.81
69785;BMP280;14177;51.520;6.764;2023-07-22T03:33:09;101096.19;;;15.79
69785;BMP280;14177;51.520;6.764;2023-07-22T03:35:37;101089.31;;;15.76
69785;BMP280;14177;51.520;6.764;2023-07-22T03:38:04;101092.94;;;15.74
69785;BMP280;14177;51.520;6.764;2023-07-22T03:40:31;101092.94;;;15.74
69785;BMP280;14177;51.520;6.764;2023-07-22T03:42:59;101089.53;;;15.72
69785;BMP280;14177;51.520;6.764;2023-07-22T03:45:26;101088.81;;;15.68
69785;BMP280;14177;51.520;6.764;2023-07-22T03:47:58;101104.63;;;15.67
69785;BMP280;14177;51.520;6.764;2023-07-22T03:50:27;101096.06;;;15.63
69785;BMP280;14177;51.520;6.764;2023-07-22T03:52:54;101097.69;;;15.66
69785;BMP280;14177;51.520;6.764;2023-07-22T03:55:21;101099.38;;;15.67
69785;BMP280;14177;51.520;6.764;2023-07-22T03:57:49;101099.25;;;15.70
69785;BMP280;14177;51.520;6.764;2023-07-22T04:00:16;101097.41;;;15.72
69785;BMP280;14177;51.520;6.764;2023-07-22T04:02:43;101092.06;;;15.73
69785;BMP280;14177;51.520;6.764;2023-07-22T04:05:10;101091.94;;;15.76
69785;BMP280;14177;51.520;6.764;2023-07-22T04:07:38;101093.63;;;15.77
69785;BMP280;14177;51.520;6.764;2023-07-22T04:10:06;101086.63;;;15.78
69785;BMP280;14177;51.520;6.764;2023-07-22T04:12:33;101098.81;;;15.79
69785;BMP280;14177;51.520;6.764;2023-07-22T04:15:00;101098.81;;;15.79
69785;BMP280;14177;51.520;6.764;2023-07-22T04:17:28;101101.44;;;15.79
69785;BMP280;14177;51.520;6.764;2023-07-22T04:19:56;101096.97;;;15.81
69785;BMP280;14177;51.520;6.764;2023-07-22T04:22:23;101100.38;;;15.82
69785;BMP280;14177;51.520;6.764;2023-07-22T04:24:50;101095.03;;;15.84
69785;BMP280;14177;51.520;6.764;2023-07-22T04:27:19;101099.44;;;15.83
69785;BMP280;14177;51.520;6.764;2023-07-22T04:29:46;101099.44;;;15.83
69785;BMP280;14177;51.520;6.764;2023-07-22T04:32:13;101101.16;;;15.84
69785;BMP280;14177;51.520;6.764;2023-07-22T04:34:40;101098.44;;;15.86
69785;BMP280;14177;51.520;6.764;2023-07-22T04:37:07;101102.75;;;15.87
69785;BMP280;14177;51.520;6.764;2023-07-22T04:39:34;101104.41;;;15.89
69785;BMP280;14177;51.520;6.764;2023-07-22T04:42:02;101105.94;;;15.93
69785;BMP280;14177;51.520;6.764;2023-07-22T04:44:29;101102.25;;;15.97
69785;BMP280;14177;51.520;6.764;2023-07-22T04:46:56;101101.25;;;16.00
69785;BMP280;14177;51.520;6.764;2023-07-22T04:49:23;101101.19;;;16.01
69785;BMP280;14177;51.520;6.764;2023-07-22T04:51:50;101096.69;;;16.03
69785;BMP280;14177;51.520;6.764;2023-07-22T04:54:18;101107.81;;;16.08
69785;BMP280;14177;51.520;6.764;2023-07-22T04:56:45;101101.50;;;16.12
69785;BMP280;14177;51.520;6.764;2023-07-22T04:59:12;101090.88;;;16.15
69785;BMP280;14177;51.520;6.764;2023-07-22T05:01:41;101096.84;;;16.19
69785;BMP280;14177;51.520;6.764;2023-07-22T05:04:08;101098.38;;;16.23
69785;BMP280;14177;51.520;6.764;2023-07-22T05:06:35;101096.59;;;16.23
69785;BMP280;14177;51.520;6.764;2023-07-22T05:09:03;101101.63;;;16.28
69785;BMP280;14177;51.520;6.764;2023-07-22T05:11:30;101093.75;;;16.28
69785;BMP280;14177;51.520;6.764;2023-07-22T05:13:57;101098.00;;;16.30
69785;BMP280;14177;51.520;6.764;2023-07-22T05:16:24;101097.06;;;16.31
69785;BMP280;14177;51.520;6.764;2023-07-22T05:18:52;101094.53;;;16.30
69785;BMP280;14177;51.520;6.764;2023-07-22T05:21:19;101099.06;;;16.26
69785;BMP280;14177;51.520;6.764;2023-07-22T05:23:46;101104.44;;;16.23
69785;BMP280;14177;51.520;6.764;2023-07-22T05:26:14;101108.25;;;16.18
69785;BMP280;14177;51.520;6.764;2023-07-22T05:28:41;101110.28;;;16.11
69785;BMP280;14177;51.520;6.764;2023-07-22T05:31:08;101108.72;;;16.07
69785;BMP280;14177;51.520;6.764;2023-07-22T05:33:36;101112.44;;;16.03
69785;BMP280;14177;51.520;6.764;2023-07-22T05:36:04;101112.44;;;16.03
69785;BMP280;14177;51.520;6.764;2023-07-22T05:38:31;101124.47;;;16.07
69785;BMP280;14177;51.520;6.764;2023-07-22T05:40:58;101119.06;;;16.10
69785;BMP280;14177;51.520;6.764;2023-07-22T05:43:25;101119.00;;;16.12
69785;BMP280;14177;51.520;6.764;2023-07-22T05:45:52;101126.66;;;16.16
69785;BMP280;14177;51.520;6.764;2023-07-22T05:48:19;101121.88;;;16.24
69785;BMP280;14177;51.520;6.764;2023-07-22T05:50:48;101123.94;;;16.36
69785;BMP280;14177;51.520;6.764;2023-07-22T05:53:15;101117.16;;;16.49
69785;BMP280;14177;51.520;6.764;2023-07-22T05:55:42;101122.13;;;16.55
69785;BMP280;14177;51.520;6.764;2023-07-22T05:58:16;101119.03;;;16.64
69785;BMP280;14177;51.520;6.764;2023-07-22T06:00:45;101120.34;;;16.73
69785;BMP280;14177;51.520;6.764;2023-07-22T06:03:13;101117.91;;;16.85
69785;BMP280;14177;51.520;6.764;2023-07-22T06:05:40;101114.16;;;16.91
69785;BMP280;14177;51.520;6.764;2023-07-22T06:08:07;101122.50;;;16.99
69785;BMP280;14177;51.520;6.764;2023-07-22T06:10:34;101109.97;;;17.04
69785;BMP280;14177;51.520;6.764;2023-07-22T06:13:04;101113.28;;;17.07
69785;BMP280;14177;51.520;6.764;2023-07-22T06:15:31;101116.66;;;17.09
69785;BMP280;14177;51.520;6.764;2023-07-22T06:18:02;101107.88;;;17.10
69785;BMP280;14177;51.520;6.764;2023-07-22T06:20:29;101115.41;;;17.16
69785;BMP280;14177;51.520;6.764;2023-07-22T06:22:56;101114.19;;;17.23
69785;BMP280;14177;51.520;6.764;2023-07-22T06:25:24;101116.69;;;17.24
69785;BMP280;14177;51.520;6.764;2023-07-22T06:27:51;101107.84;;;17.27
69785;BMP280;14177;51.520;6.764;2023-07-22T06:30:20;101104.91;;;17.33
69785;BMP280;14177;51.520;6.764;2023-07-22T06:32:47;101109.84;;;17.39
69785;BMP280;14177;51.520;6.764;2023-07-22T06:35:14;101112.13;;;17.45
69785;BMP280;14177;51.520;6.764;2023-07-22T06:37:41;101116.97;;;17.52
69785;BMP280;14177;51.520;6.764;2023-07-22T06:40:08;101105.19;;;17.59
69785;BMP280;14177;51.520;6.764;2023-07-22T06:42:36;101111.81;;;17.66
69785;BMP280;14177;51.520;6.764;2023-07-22T06:45:04;101110.38;;;17.76
69785;BMP280;14177;51.520;6.764;2023-07-22T06:47:32;101094.00;;;17.87
69785;BMP280;14177;51.520;6.764;2023-07-22T06:49:58;101110.81;;;18.00
69785;BMP280;14177;51.520;6.764;2023-07-22T06:52:26;101107.56;;;18.10
69785;BMP280;14177;51.520;6.764;2023-07-22T06:54:53;101093.81;;;18.21
69785;BMP280;14177;51.520;6.764;2023-07-22T06:57:19;101091.59;;;18.29
69785;BMP280;14177;51.520;6.764;2023-07-22T06:59:46;101099.31;;;18.32
69785;BMP280;14177;51.520;6.764;2023-07-22T07:02:14;101099.91;;;18.36
69785;BMP280;14177;51.520;6.764;2023-07-22T07:04:40;101088.03;;;18.45
69785;BMP280;14177;51.520;6.764;2023-07-22T07:07:07;101093.22;;;18.60
69785;BMP280;14177;51.520;6.764;2023-07-22T07:09:35;101083.84;;;18.70
69785;BMP280;14177;51.520;6.764;2023-07-22T07:12:02;101089.13;;;18.70
69785;BMP280;14177;51.520;6.764;2023-07-22T07:14:29;101084.63;;;18.86
69785;BMP280;14177;51.520;6.764;2023-07-22T07:16:56;101086.31;;;19.01
69785;BMP280;14177;51.520;6.764;2023-07-22T07:19:23;101088.00;;;19.02
69785;BMP280;14177;51.520;6.764;2023-07-22T07:21:50;101083.44;;;19.06
69785;BMP280;14177;51.520;6.764;2023-07-22T07:24:17;101087.69;;;19.22
69785;BMP280;14177;51.520;6.764;2023-07-22T07:26:44;101089.19;;;19.26
69785;BMP280;14177;51.520;6.764;2023-07-22T07:29:12;101082.03;;;19.28
69785;BMP280;14177;51.520;6.764;2023-07-22T07:31:46;101084.22;;;19.22
69785;BMP280;14177;51.520;6.764;2023-07-22T07:34:13;101086.66;;;19.25
69785;BMP280;14177;51.520;6.764;2023-07-22T07:36:40;101088.91;;;19.31
69785;BMP280;14177;51.520;6.764;2023-07-22T07:39:07;101094.16;;;19.45
69785;BMP280;14177;51.520;6.764;2023-07-22T07:41:34;101093.41;;;19.57
69785;BMP280;14177;51.520;6.764;2023-07-22T07:44:01;101101.03;;;19.61
69785;BMP280;14177;51.520;6.764;2023-07-22T07:46:28;101094.50;;;19.66
69785;BMP280;14177;51.520;6.764;2023-07-22T07:49:01;101082.53;;;19.75
69785;BMP280;14177;51.520;6.764;2023-07-22T07:51:30;101095.44;;;19.79
69785;BMP280;14177;51.520;6.764;2023-07-22T07:53:59;101094.00;;;19.74
69785;BMP280;14177;51.520;6.764;2023-07-22T07:56:26;101101.91;;;19.74
69785;BMP280;14177;51.520;6.764;2023-07-22T07:58:54;101101.34;;;19.83
69785;BMP280;14177;51.520;6.764;2023-07-22T08:01:22;101098.44;;;20.01
69785;BMP280;14177;51.520;6.764;2023-07-22T08:03:49;101108.47;;;20.09
69785;BMP280;14177;51.520;6.764;2023-07-22T08:06:16;101107.88;;;20.18
69785;BMP280;14177;51.520;6.764;2023-07-22T08:08:46;101105.25;;;20.18
69785;BMP280;14177;51.520;6.764;2023-07-22T08:11:14;101100.31;;;20.26
69785;BMP280;14177;51.520;6.764;2023-07-22T08:13:44;101100.53;;;20.35
69785;BMP280;14177;51.520;6.764;2023-07-22T08:16:13;101098.66;;;20.37
69785;BMP280;14177;51.520;6.764;2023-07-22T08:18:41;101096.94;;;20.36
69785;BMP280;14177;51.520;6.764;2023-07-22T08:21:08;101104.16;;;20.47
69785;BMP280;14177;51.520;6.764;2023-07-22T08:23:36;101097.31;;;20.57
69785;BMP280;14177;51.520;6.764;2023-07-22T08:26:05;101103.13;;;20.62
69785;BMP280;14177;51.520;6.764;2023-07-22T08:28:35;101103.13;;;20.62
69785;BMP280;14177;51.520;6.764;2023-07-22T08:31:02;101101.00;;;20.54
69785;BMP280;14177;51.520;6.764;2023-07-22T08:33:30;101102.50;;;20.58
69785;BMP280;14177;51.520;6.764;2023-07-22T08:36:00;101096.28;;;20.72
69785;BMP280;14177;51.520;6.764;2023-07-22T08:38:29;101097.28;;;20.83
69785;BMP280;14177;51.520;6.764;2023-07-22T08:40:57;101104.88;;;20.75
69785;BMP280;14177;51.520;6.764;2023-07-22T08:43:25;101104.41;;;20.69
69785;BMP280;14177;51.520;6.764;2023-07-22T08:45:54;101115.78;;;20.57
69785;BMP280;14177;51.520;6.764;2023-07-22T08:48:26;101114.91;;;20.44
69785;BMP280;14177;51.520;6.764;2023-07-22T08:51:06;101110.72;;;20.54
69785;BMP280;14177;51.520;6.764;2023-07-22T08:53:37;101112.66;;;20.64
69785;BMP280;14177;51.520;6.764;2023-07-22T08:56:04;101106.66;;;20.75
69785;BMP280;14177;51.520;6.764;2023-07-22T08:58:32;101103.22;;;20.87
69785;BMP280;14177;51.520;6.764;2023-07-22T09:01:02;101103.41;;;20.84
69785;BMP280;14177;51.520;6.764;2023-07-22T09:03:29;101105.31;;;20.82
69785;BMP280;14177;51.520;6.764;2023-07-22T09:05:57;101096.44;;;20.95
69785;BMP280;14177;51.520;6.764;2023-07-22T09:08:25;101104.47;;;21.06
69785;BMP280;14177;51.520;6.764;2023-07-22T09:10:52;101098.97;;;21.09
69785;BMP280;14177;51.520;6.764;2023-07-22T09:13:21;101098.66;;;21.13
69785;BMP280;14177;51.520;6.764;2023-07-22T09:15:50;101097.28;;;21.20
69785;BMP280;14177;51.520;6.764;2023-07-22T09:18:17;101103.19;;;21.36
69785;BMP280;14177;51.520;6.764;2023-07-22T09:20:44;101095.34;;;21.47
69785;BMP280;14177;51.520;6.764;2023-07-22T09:23:11;101103.59;;;21.55
69785;BMP280;14177;51.520;6.764;2023-07-22T09:25:42;101107.53;;;21.62
69785;BMP280;14177;51.520;6.764;2023-07-22T09:28:09;101094.00;;;21.90
69785;BMP280;14177;51.520;6.764;2023-07-22T09:30:39;101085.38;;;22.35
69785;BMP280;14177;51.520;6.764;2023-07-22T09:33:20;101086.31;;;22.68
69785;BMP280;14177;51.520;6.764;2023-07-22T09:35:49;101087.16;;;22.69
69785;BMP280;14177;51.520;6.764;2023-07-22T09:38:24;101079.13;;;22.81
69785;BMP280;14177;51.520;6.764;2023-07-22T09:40:52;101082.38;;;22.85
69785;BMP280;14177;51.520;6.764;2023-07-22T09:43:21;101090.84;;;23.01
69785;BMP280;14177;51.520;6.764;2023-07-22T09:45:50;101080.34;;;22.88
69785;BMP280;14177;51.520;6.764;2023-07-22T09:48:17;101082.41;;;22.96
69785;BMP280;14177;51.520;6.764;2023-07-22T09:50:44;101084.91;;;22.97
69785;BMP280;14177;51.520;6.764;2023-07-22T09:53:15;101073.22;;;22.89
69785;BMP280;14177;51.520;6.764;2023-07-22T09:55:43;101087.34;;;22.89
69785;BMP280;14177;51.520;6.764;2023-07-22T09:58:11;101079.44;;;22.66
69785;BMP280;14177;51.520;6.764;2023-07-22T10:00:47;101070.41;;;22.57
69785;BMP280;14177;51.520;6.764;2023-07-22T10:03:18;101068.66;;;22.45
69785;BMP280;14177;51.520;6.764;2023-07-22T10:05:50;101079.16;;;22.47
69785;BMP280;14177;51.520;6.764;2023-07-22T10:08:19;101071.63;;;22.64
69785;BMP280;14177;51.520;6.764;2023-07-22T10:10:53;101072.97;;;22.81
69785;BMP280;14177;51.520;6.764;2023-07-22T10:13:21;101077.81;;;22.87
69785;BMP280;14177;51.520;6.764;2023-07-22T10:15:49;101080.00;;;23.04
69785;BMP280;14177;51.520;6.764;2023-07-22T10:18:16;101077.47;;;23.02
69785;BMP280;14177;51.520;6.764;2023-07-22T10:20:45;101076.78;;;23.22
69785;BMP280;14177;51.520;6.764;2023-07-22T10:23:14;101074.25;;;23.42
69785;BMP280;14177;51.520;6.764;2023-07-22T10:25:43;101071.59;;;23.42
69785;BMP280;14177;51.520;6.764;2023-07-22T10:28:12;101065.94;;;23.58
69785;BMP280;14177;51.520;6.764;2023-07-22T10:30:40;101067.97;;;23.87
69785;BMP280;14177;51.520;6.764;2023-07-22T10:33:07;101064.81;;;24.25
69785;BMP280;14177;51.520;6.764;2023-07-22T10:35:42;101070.19;;;24.34
69785;BMP280;14177;51.520;6.764;2023-07-22T10:38:14;101059.88;;;24.52
69785;BMP280;14177;51.520;6.764;2023-07-22T10:40:46;101056.38;;;24.71
69785;BMP280;14177;51.520;6.764;2023-07-22T10:43:23;101055.28;;;24.94
69785;BMP280;14177;51.520;6.764;2023-07-22T10:46:03;101050.84;;;24.84
69785;BMP280;14177;51.520;6.764;2023-07-22T10:48:40;101053.91;;;24.79
69785;BMP280;14177;51.520;6.764;2023-07-22T10:51:14;101060.31;;;24.77
69785;BMP280;14177;51.520;6.764;2023-07-22T10:53:44;101040.72;;;24.68
69785;BMP280;14177;51.520;6.764;2023-07-22T10:56:19;101047.31;;;24.22
69785;BMP280;14177;51.520;6.764;2023-07-22T11:12:08;101020.03;;;24.92
69785;BMP280;14177;51.520;6.764;2023-07-22T11:14:41;101023.31;;;25.05
69785;BMP280;14177;51.520;6.764;2023-07-22T11:17:11;101027.50;;;25.08
69785;BMP280;14177;51.520;6.764;2023-07-22T11:19:38;101013.06;;;25.01
69785;BMP280;14177;51.520;6.764;2023-07-22T11:22:06;101019.41;;;24.89
69785;BMP280;14177;51.520;6.764;2023-07-22T11:24:34;101014.19;;;24.78
69785;BMP280;14177;51.520;6.764;2023-07-22T11:27:07;101019.19;;;24.71
69785;BMP280;14177;51.520;6.764;2023-07-22T11:29:37;101022.44;;;24.75
69785;BMP280;14177;51.520;6.764;2023-07-22T11:32:05;101017.72;;;24.58
69785;BMP280;14177;51.520;6.764;2023-07-22T11:34:33;101017.78;;;24.67
69785;BMP280;14177;51.520;6.764;2023-07-22T11:37:00;101005.25;;;24.79
69785;BMP280;14177;51.520;6.764;2023-07-22T11:39:27;101007.66;;;25.12
69785;BMP280;14177;51.520;6.764;2023-07-22T11:42:00;100998.19;;;25.19
69785;BMP280;14177;51.520;6.764;2023-07-22T11:44:30;101004.81;;;25.34
69785;BMP280;14177;51.520;6.764;2023-07-22T11:47:07;100992.69;;;25.11
69785;BMP280;14177;51.520;6.764;2023-07-22T11:49:41;100999.22;;;24.97
69785;BMP280;14177;51.520;6.764;2023-07-22T11:52:11;101004.44;;;24.58
69785;BMP280;14177;51.520;6.764;2023-07-22T11:54:43;100993.84;;;24.47
69785;BMP280;14177;51.520;6.764;2023-07-22T11:57:18;101007.25;;;24.46
69785;BMP280;14177;51.520;6.764;2023-07-22T11:59:53;101011.72;;;24.45
69785;BMP280;14177;51.520;6.764;2023-07-22T12:02:26;100991.09;;;24.99
69785;BMP280;14177;51.520;6.764;2023-07-22T12:05:05;100998.63;;;25.24
69785;BMP280;14177;51.520;6.764;2023-07-22T12:07:38;100980.50;;;25.08
69785;BMP280;14177;51.520;6.764;2023-07-22T12:10:07;100985.59;;;24.91
69785;BMP280;14177;51.520;6.764;2023-07-22T12:12:40;100978.41;;;24.82
69785;BMP280;14177;51.520;6.764;2023-07-22T12:15:22;100978.34;;;24.63
69785;BMP280;14177;51.520;6.764;2023-07-22T12:17:54;100983.50;;;24.44
69785;BMP280;14177;51.520;6.764;2023-07-22T12:20:27;100981.94;;;24.21
69785;BMP280;14177;51.520;6.764;2023-07-22T12:22:56;100983.31;;;24.16
69785;BMP280;14177;51.520;6.764;2023-07-22T12:25:24;100986.47;;;24.30
69785;BMP280;14177;51.520;6.764;2023-07-22T12:27:51;100986.38;;;24.52
69785;BMP280;14177;51.520;6.764;2023-07-22T12:30:18;100984.59;;;24.42
69785;BMP280;14177;51.520;6.764;2023-07-22T12:32:47;100978.88;;;24.57
69785;BMP280;14177;51.520;6.764;2023-07-22T12:35:15;100969.81;;;24.89
69785;BMP280;14177;51.520;6.764;2023-07-22T12:37:42;100978.88;;;25.17
69785;BMP280;14177;51.520;6.764;2023-07-22T12:40:09;100971.41;;;25.50
69785;BMP280;14177;51.520;6.764;2023-07-22T12:42:39;100960.56;;;25.82
69785;BMP280;14177;51.520;6.764;2023-07-22T12:45:07;100956.63;;;25.95
69785;BMP280;14177;51.520;6.764;2023-07-22T12:47:35;100955.66;;;26.05
69785;BMP280;14177;51.520;6.764;2023-07-22T12:50:05;100972.81;;;25.64
69785;BMP280;14177;51.520;6.764;2023-07-22T12:52:32;100974.00;;;25.22
69785;BMP280;14177;51.520;6.764;2023-07-22T12:54:59;100971.25;;;25.03
69785;BMP280;14177;51.520;6.764;2023-07-22T12:57:26;100974.06;;;25.01
69785;BMP280;14177;51.520;6.764;2023-07-22T12:59:53;100973.06;;;25.02
69785;BMP280;14177;51.520;6.764;2023-07-22T13:02:19;100971.88;;;25.16
69785;BMP280;14177;51.520;6.764;2023-07-22T13:04:46;100959.91;;;25.31
69785;BMP280;14177;51.520;6.764;2023-07-22T13:07:13;100951.66;;;25.34
69785;BMP280;14177;51.520;6.764;2023-07-22T13:09:40;100951.66;;;25.34
69785;BMP280;14177;51.520;6.764;2023-07-22T13:12:09;100959.47;;;25.35
69785;BMP280;14177;51.520;6.764;2023-07-22T13:14:36;100956.84;;;25.45
69785;BMP280;14177;51.520;6.764;2023-07-22T13:17:06;100933.31;;;25.31
69785;BMP280;14177;51.520;6.764;2023-07-22T13:19:34;100945.31;;;25.25
69785;BMP280;14177;51.520;6.764;2023-07-22T13:22:01;100941.56;;;25.28
69785;BMP280;14177;51.520;6.764;2023-07-22T13:24:28;100946.94;;;25.47
69785;BMP280;14177;51.520;6.764;2023-07-22T13:26:55;100919.91;;;25.51
69785;BMP280;14177;51.520;6.764;2023-07-22T13:29:22;100942.59;;;25.46
69785;BMP280;14177;51.520;6.764;2023-07-22T13:31:49;100939.47;;;25.31
69785;BMP280;14177;51.520;6.764;2023-07-22T13:34:16;100944.38;;;25.36
69785;BMP280;14177;51.520;6.764;2023-07-22T13:36:43;100942.97;;;25.32
69785;BMP280;14177;51.520;6.764;2023-07-22T13:39:10;100932.19;;;25.24
69785;BMP280;14177;51.520;6.764;2023-07-22T13:41:37;100925.84;;;25.15
69785;BMP280;14177;51.520;6.764;2023-07-22T13:44:04;100938.69;;;25.10
69785;BMP280;14177;51.520;6.764;2023-07-22T13:46:31;100920.19;;;25.39
69785;BMP280;14177;51.520;6.764;2023-07-22T13:48:58;100909.97;;;25.63
69785;BMP280;14177;51.520;6.764;2023-07-22T13:51:25;100918.13;;;25.90
69785;BMP280;14177;51.520;6.764;2023-07-22T13:53:52;100910.53;;;26.04
69785;BMP280;14177;51.520;6.764;2023-07-22T13:56:21;100906.72;;;26.16
69785;BMP280;14177;51.520;6.764;2023-07-22T13:58:48;100911.16;;;26.34
69785;BMP280;14177;51.520;6.764;2023-07-22T14:01:15;100912.38;;;26.03
69785;BMP280;14177;51.520;6.764;2023-07-22T14:03:42;100911.50;;;26.03
69785;BMP280;14177;51.520;6.764;2023-07-22T14:06:09;100897.50;;;26.10
69785;BMP280;14177;51.520;6.764;2023-07-22T14:08:36;100904.31;;;26.32
69785;BMP280;14177;51.520;6.764;2023-07-22T14:11:03;100889.28;;;26.40
69785;BMP280;14177;51.520;6.764;2023-07-22T14:13:30;100901.50;;;26.43
69785;BMP280;14177;51.520;6.764;2023-07-22T14:15:57;100896.03;;;26.54
69785;BMP280;14177;51.520;6.764;2023-07-22T14:18:39;100909.59;;;26.60